createdAt,value
2023-01-12T00:00:45.379Z,89.69
2023-01-12T00:01:45.671Z,89.02
2023-01-12T00:02:45.481Z,89.02
2023-01-12T00:03:45.429Z,89.26
2023-01-12T00:04:45.452Z,89.31
2023-01-12T00:05:45.595Z,89.79
2023-01-12T00:06:45.516Z,89.02
2023-01-12T00:07:45.541Z,89.79
2023-01-12T00:08:45.866Z,89.98
2023-01-12T00:09:45.609Z,89.83
2023-01-12T00:11:45.667Z,90.37
2023-01-12T00:12:45.702Z,89.98
2023-01-12T00:13:45.712Z,89.02
2023-01-12T00:14:45.759Z,88.45
2023-01-12T00:15:46.092Z,89.02
2023-01-12T00:16:45.796Z,88.59
2023-01-12T00:17:45.820Z,88.73
2023-01-12T00:18:45.851Z,89.02
2023-01-12T00:19:45.879Z,88.83
2023-01-12T00:21:45.934Z,88.45
2023-01-12T00:22:46.241Z,88.59
2023-01-12T00:23:45.991Z,88.73
2023-01-12T00:24:46.045Z,88.35
2023-01-12T00:25:46.046Z,88.83
2023-01-12T00:26:46.074Z,87.96
2023-01-12T00:27:46.105Z,88.64
2023-01-12T00:28:46.155Z,88.73
2023-01-12T00:29:46.467Z,88.73
2023-01-12T00:30:46.197Z,88.93
2023-01-12T00:31:46.225Z,89.22
2023-01-12T00:32:46.355Z,88.06
2023-01-12T00:33:46.275Z,88.45
2023-01-12T00:34:46.321Z,88.45
2023-01-12T00:35:46.334Z,88.54
2023-01-12T00:36:46.665Z,88.54
2023-01-12T00:37:46.418Z,88.06
2023-01-12T00:38:46.417Z,88.83
2023-01-12T00:40:00.883Z,89.31
2023-01-12T00:40:46.474Z,89.31
2023-01-12T00:41:46.503Z,89.22
2023-01-12T00:42:46.557Z,89.12
2023-01-12T00:43:46.811Z,88.45
2023-01-12T00:44:46.606Z,88.16
2023-01-12T00:45:46.623Z,88.93
2023-01-12T00:46:46.644Z,88.93
2023-01-12T00:47:46.679Z,88.16
2023-01-12T00:48:46.702Z,87.49
2023-01-12T00:49:46.732Z,88.06
2023-01-12T00:50:47.023Z,87.58
2023-01-12T00:51:46.787Z,87.29
2023-01-12T00:52:46.827Z,87.68
2023-01-12T00:53:46.857Z,88.64
2023-01-12T00:54:46.871Z,88.54
2023-01-12T00:55:46.898Z,88.93
2023-01-12T00:56:46.937Z,88.54
2023-01-12T00:57:47.256Z,89.02
2023-01-12T00:58:47.013Z,89.22
2023-01-12T00:59:47.015Z,89.69
2023-01-12T01:00:47.071Z,89.22
2023-01-12T01:01:47.177Z,88.83
2023-01-12T01:02:47.166Z,89.12
2023-01-12T01:03:47.128Z,89.02
2023-01-12T01:04:47.457Z,89.50
2023-01-12T01:07:47.295Z,89.98
2023-01-12T01:08:47.274Z,89.79
2023-01-12T01:09:47.300Z,89.79
2023-01-12T01:10:47.324Z,89.50
2023-01-12T01:11:47.661Z,89.98
2023-01-12T01:12:47.382Z,89.02
2023-01-12T01:13:47.405Z,89.12
2023-01-12T01:14:47.445Z,89.98
2023-01-12T01:15:47.562Z,89.69
2023-01-12T01:17:47.554Z,89.98
2023-01-12T01:18:47.807Z,89.98
2023-01-12T01:19:47.583Z,89.02
2023-01-12T01:20:47.606Z,88.54
2023-01-12T01:21:47.637Z,88.35
2023-01-12T01:22:47.662Z,89.31
2023-01-12T01:23:47.693Z,88.73
2023-01-12T01:24:47.732Z,89.02
2023-01-12T01:25:48.062Z,89.89
2023-01-12T01:26:47.776Z,89.31
2023-01-12T01:27:47.908Z,88.93
2023-01-12T01:28:47.850Z,89.31
2023-01-12T01:29:47.881Z,89.89
2023-01-12T01:30:47.930Z,89.79
2023-01-12T01:31:47.929Z,88.93
2023-01-12T01:32:48.343Z,89.22
2023-01-12T01:33:47.995Z,88.64
2023-01-12T01:34:48.341Z,89.02
2023-01-12T01:35:48.032Z,89.02
2023-01-12T01:36:48.060Z,89.40
2023-01-12T01:38:48.116Z,88.73
2023-01-12T01:39:48.400Z,88.83
2023-01-12T01:40:48.274Z,88.93
2023-01-12T01:41:48.265Z,89.22
2023-01-12T01:42:48.243Z,89.79
2023-01-12T01:43:48.255Z,89.69
2023-01-12T01:44:48.283Z,90.37
2023-01-12T01:45:48.630Z,90.46
2023-01-12T01:47:48.373Z,89.79
2023-01-12T01:48:48.394Z,89.79
2023-01-12T01:49:48.454Z,89.69
2023-01-12T01:50:48.559Z,89.79
2023-01-12T01:51:49.087Z,89.12
2023-01-12T01:52:48.624Z,89.12
2023-01-12T01:53:48.550Z,89.89
2023-01-12T01:54:48.571Z,89.22
2023-01-12T01:55:48.607Z,89.98
2023-01-12T01:56:48.651Z,89.22
2023-01-12T01:57:49.257Z,89.98
2023-01-12T01:58:48.696Z,89.79
2023-01-12T01:59:48.716Z,89.79
2023-01-12T02:00:48.855Z,89.69
2023-01-12T02:02:48.879Z,89.75
2023-01-12T02:03:48.824Z,89.60
2023-01-12T02:05:49.212Z,89.75
2023-01-12T02:06:48.913Z,89.22
2023-01-12T02:07:48.958Z,89.36
2023-01-12T02:08:48.984Z,90.13
2023-01-12T02:09:48.992Z,90.17
2023-01-12T02:10:49.021Z,90.08
2023-01-12T02:11:49.352Z,89.79
2023-01-12T02:12:49.081Z,90.46
2023-01-12T02:13:49.109Z,89.69
2023-01-12T02:14:49.944Z,90.03
2023-01-12T02:15:49.209Z,90.27
2023-01-12T02:16:49.215Z,89.75
2023-01-12T02:17:49.231Z,89.65
2023-01-12T02:18:49.547Z,89.69
2023-01-12T02:19:49.275Z,89.22
2023-01-12T02:20:49.312Z,90.03
2023-01-12T02:21:49.412Z,89.84
2023-01-12T02:22:49.360Z,89.26
2023-01-12T02:23:49.397Z,89.75
2023-01-12T02:24:49.413Z,89.94
2023-01-12T02:25:49.747Z,89.65
2023-01-12T02:26:49.495Z,89.36
2023-01-12T02:27:49.501Z,89.55
2023-01-12T02:28:49.537Z,90.61
2023-01-12T02:29:49.554Z,89.94
2023-01-12T02:30:49.580Z,89.55
2023-01-12T02:32:49.908Z,89.65
2023-01-12T02:33:49.669Z,89.55
2023-01-12T02:34:49.694Z,89.94
2023-01-12T02:35:49.722Z,89.65
2023-01-12T02:36:49.754Z,89.94
2023-01-12T02:37:49.802Z,90.03
2023-01-12T02:39:50.145Z,89.94
2023-01-12T02:40:49.877Z,90.13
2023-01-12T02:41:49.896Z,90.13
2023-01-12T02:42:49.967Z,89.94
2023-01-12T02:43:49.951Z,89.94
2023-01-12T02:44:49.985Z,90.13
2023-01-12T02:45:50.007Z,90.13
2023-01-12T02:46:50.375Z,89.55
2023-01-12T02:47:50.070Z,89.65
2023-01-12T02:48:50.094Z,89.65
2023-01-12T02:49:50.125Z,90.13
2023-01-12T02:50:50.150Z,89.94
2023-01-12T02:51:50.283Z,89.94
2023-01-12T02:52:50.207Z,89.75
2023-01-12T02:54:50.582Z,89.84
2023-01-12T02:56:50.315Z,89.65
2023-01-12T02:57:50.454Z,90.32
2023-01-12T02:58:50.392Z,90.42
2023-01-12T02:59:50.410Z,89.55
2023-01-12T03:00:50.551Z,90.13
2023-01-12T03:01:50.834Z,90.13
2023-01-12T03:02:50.643Z,89.84
2023-01-12T03:03:50.531Z,90.22
2023-01-12T03:04:50.546Z,90.61
2023-01-12T03:05:50.571Z,90.42
2023-01-12T03:06:50.597Z,90.61
2023-01-12T03:07:50.625Z,90.61
2023-01-12T03:08:50.924Z,89.55
2023-01-12T03:09:50.704Z,90.52
2023-01-12T03:10:50.746Z,90.70
2023-01-12T03:11:50.743Z,90.90
2023-01-12T03:12:50.763Z,90.90
2023-01-12T03:13:50.795Z,90.32
2023-01-12T03:14:50.826Z,90.22
2023-01-12T03:15:51.211Z,90.32
2023-01-12T03:16:50.881Z,90.42
2023-01-12T03:17:50.911Z,90.70
2023-01-12T03:18:50.944Z,90.61
2023-01-12T03:19:50.965Z,90.99
2023-01-12T03:20:51.008Z,90.90
2023-01-12T03:21:51.028Z,90.42
2023-01-12T03:22:51.301Z,90.52
2023-01-12T03:23:51.183Z,90.22
2023-01-12T03:24:51.103Z,90.61
2023-01-12T03:25:51.156Z,90.80
2023-01-12T03:26:51.186Z,91.09
2023-01-12T03:27:51.195Z,90.90
2023-01-12T03:28:51.213Z,90.90
2023-01-12T03:29:51.506Z,90.99
2023-01-12T03:30:51.278Z,90.61
2023-01-12T03:31:51.304Z,90.61
2023-01-12T03:32:51.332Z,90.99
2023-01-12T03:33:51.364Z,91.04
2023-01-12T03:34:51.392Z,91.19
2023-01-12T03:35:51.431Z,90.80
2023-01-12T03:36:51.703Z,90.99
2023-01-12T03:37:51.494Z,90.99
2023-01-12T03:38:51.511Z,91.09
2023-01-12T03:39:51.535Z,90.90
2023-01-12T03:40:51.561Z,90.90
2023-01-12T03:41:51.581Z,90.90
2023-01-12T03:42:51.643Z,91.28
2023-01-12T03:43:51.889Z,91.09
2023-01-12T03:44:51.668Z,90.90
2023-01-12T03:45:51.694Z,90.90
2023-01-12T03:46:51.822Z,90.99
2023-01-12T03:47:51.752Z,90.80
2023-01-12T03:49:52.165Z,91.09
2023-01-12T03:50:51.837Z,91.13
2023-01-12T03:51:51.967Z,91.09
2023-01-12T03:52:51.898Z,90.99
2023-01-12T03:53:51.921Z,90.99
2023-01-12T03:54:51.948Z,91.09
2023-01-12T03:55:52.282Z,91.09
2023-01-12T03:56:52.004Z,91.04
2023-01-12T03:57:52.048Z,91.13
2023-01-12T03:58:52.149Z,90.99
2023-01-12T04:00:52.243Z,90.90
2023-01-12T04:01:52.592Z,91.09
2023-01-12T04:02:52.177Z,90.99
2023-01-12T04:03:52.221Z,90.61
2023-01-12T04:04:52.237Z,90.70
2023-01-12T04:05:52.269Z,90.99
2023-01-12T04:06:52.297Z,90.99
2023-01-12T04:07:52.317Z,90.90
2023-01-12T04:08:52.651Z,90.99
2023-01-12T04:09:52.378Z,90.90
2023-01-12T04:10:52.402Z,90.99
2023-01-12T04:11:52.433Z,90.66
2023-01-12T04:12:52.467Z,90.52
2023-01-12T04:13:52.494Z,90.52
2023-01-12T04:14:52.690Z,90.66
2023-01-12T04:15:52.792Z,90.99
2023-01-12T04:16:52.593Z,90.99
2023-01-12T04:17:52.607Z,90.80
2023-01-12T04:18:52.652Z,90.80
2023-01-12T04:19:52.674Z,90.94
2023-01-12T04:20:52.689Z,90.90
2023-01-12T04:21:52.722Z,90.99
2023-01-12T04:22:52.995Z,90.94
2023-01-12T04:23:53.087Z,90.61
2023-01-12T04:24:52.804Z,90.94
2023-01-12T04:25:52.832Z,90.99
2023-01-12T04:26:52.870Z,90.80
2023-01-12T04:27:52.906Z,90.84
2023-01-12T04:28:52.927Z,90.94
2023-01-12T04:29:53.243Z,90.80
2023-01-12T04:30:53.003Z,90.84
2023-01-12T04:31:53.056Z,91.09
2023-01-12T04:32:53.131Z,91.04
2023-01-12T04:33:53.060Z,90.84
2023-01-12T04:34:53.088Z,90.84
2023-01-12T04:35:53.111Z,90.94
2023-01-12T04:36:53.393Z,90.84
2023-01-12T04:37:53.469Z,90.66
2023-01-12T04:38:53.199Z,90.99
2023-01-12T04:39:53.237Z,90.66
2023-01-12T04:40:53.260Z,91.04
2023-01-12T04:41:53.281Z,90.94
2023-01-12T04:42:53.322Z,90.22
2023-01-12T04:43:53.588Z,90.27
2023-01-12T04:44:53.373Z,90.27
2023-01-12T04:45:53.421Z,91.04
2023-01-12T04:46:53.447Z,90.90
2023-01-12T04:48:53.484Z,90.94
2023-01-12T04:49:53.512Z,90.94
2023-01-12T04:51:53.567Z,90.27
2023-01-12T04:52:53.600Z,90.27
2023-01-12T04:55:53.783Z,90.52
2023-01-12T04:56:53.709Z,90.22
2023-01-12T04:57:53.996Z,90.66
2023-01-12T04:58:53.772Z,90.94
2023-01-12T04:59:53.794Z,90.90
2023-01-12T05:00:53.824Z,91.04
2023-01-12T05:01:53.873Z,90.94
2023-01-12T05:02:53.900Z,90.75
2023-01-12T05:03:53.929Z,90.94
2023-01-12T05:04:54.237Z,91.04
2023-01-12T05:05:53.966Z,90.94
2023-01-12T05:06:53.995Z,90.94
2023-01-12T05:07:54.027Z,91.04
2023-01-12T05:08:54.057Z,91.04
2023-01-12T05:10:54.111Z,90.84
2023-01-12T05:11:54.400Z,90.80
2023-01-12T05:12:54.164Z,91.04
2023-01-12T05:13:54.192Z,91.04
2023-01-12T05:14:54.222Z,90.75
2023-01-12T05:15:54.350Z,90.94
2023-01-12T05:16:54.357Z,91.04
2023-01-12T05:17:54.335Z,90.84
2023-01-12T05:18:54.615Z,90.84
2023-01-12T05:19:54.465Z,90.75
2023-01-12T05:20:54.394Z,90.94
2023-01-12T05:21:54.428Z,90.94
2023-01-12T05:22:54.557Z,90.94
2023-01-12T05:23:54.481Z,90.90
2023-01-12T05:24:54.605Z,90.94
2023-01-12T05:25:54.837Z,91.13
2023-01-12T05:26:54.619Z,91.04
2023-01-12T05:27:54.594Z,90.94
2023-01-12T05:28:54.621Z,90.94
2023-01-12T05:29:54.653Z,91.13
2023-01-12T05:30:54.748Z,90.80
2023-01-12T05:31:54.714Z,90.94
2023-01-12T05:32:55.038Z,90.94
2023-01-12T05:33:54.786Z,90.75
2023-01-12T05:34:54.834Z,90.56
2023-01-12T05:35:54.860Z,90.66
2023-01-12T05:36:54.975Z,90.84
2023-01-12T05:37:54.881Z,90.75
2023-01-12T05:38:54.906Z,90.84
2023-01-12T05:39:55.284Z,91.04
2023-01-12T05:40:54.974Z,90.94
2023-01-12T05:41:55.002Z,90.37
2023-01-12T05:42:55.028Z,90.94
2023-01-12T05:43:55.081Z,91.04
2023-01-12T05:44:55.077Z,91.04
2023-01-12T05:45:55.449Z,91.04
2023-01-12T05:46:55.394Z,90.66
2023-01-12T05:47:55.162Z,90.27
2023-01-12T05:48:55.192Z,90.94
2023-01-12T05:49:55.234Z,90.56
2023-01-12T05:50:55.268Z,90.66
2023-01-12T05:51:55.287Z,91.04
2023-01-12T05:52:55.609Z,90.66
2023-01-12T05:53:55.366Z,90.46
2023-01-12T05:54:55.361Z,90.66
2023-01-12T05:55:55.396Z,90.66
2023-01-12T05:56:55.448Z,90.37
2023-01-12T05:57:55.449Z,90.46
2023-01-12T05:58:55.480Z,90.37
2023-01-12T05:59:55.510Z,90.37
2023-01-12T06:00:55.573Z,90.32
2023-01-12T06:01:55.639Z,90.66
2023-01-12T06:03:55.629Z,90.27
2023-01-12T06:04:55.990Z,90.27
2023-01-12T06:05:55.675Z,90.66
2023-01-12T06:06:55.726Z,90.22
2023-01-12T06:07:55.747Z,90.94
2023-01-12T06:08:55.817Z,90.75
2023-01-12T06:10:55.837Z,90.84
2023-01-12T06:11:55.864Z,90.84
2023-01-12T06:12:55.876Z,90.84
2023-01-12T06:13:55.912Z,90.84
2023-01-12T06:14:55.950Z,90.94
2023-01-12T06:15:56.045Z,90.94
2023-01-12T06:16:56.112Z,90.66
2023-01-12T06:17:56.321Z,90.66
2023-01-12T06:18:56.060Z,90.90
2023-01-12T06:19:56.095Z,91.04
2023-01-12T06:20:56.102Z,90.84
2023-01-12T06:21:56.141Z,90.84
2023-01-12T06:22:56.189Z,90.84
2023-01-12T06:23:56.491Z,90.84
2023-01-12T06:24:56.473Z,90.84
2023-01-12T06:25:56.263Z,90.84
2023-01-12T06:26:56.295Z,90.75
2023-01-12T06:27:56.327Z,91.04
2023-01-12T06:28:56.333Z,90.84
2023-01-12T06:29:56.364Z,91.04
2023-01-12T06:30:56.514Z,91.04
2023-01-12T06:31:56.730Z,91.04
2023-01-12T06:32:56.465Z,90.84
2023-01-12T06:33:56.485Z,90.84
2023-01-12T06:34:57.966Z,91.04
2023-01-12T06:35:56.541Z,90.80
2023-01-12T06:36:56.563Z,91.04
2023-01-12T06:37:56.592Z,91.04
2023-01-12T06:38:56.939Z,90.94
2023-01-12T06:39:56.668Z,90.84
2023-01-12T06:40:56.687Z,90.80
2023-01-12T06:41:56.828Z,90.99
2023-01-12T06:42:56.732Z,90.84
2023-01-12T06:43:56.764Z,90.84
2023-01-12T06:45:57.225Z,90.84
2023-01-12T06:46:56.855Z,90.84
2023-01-12T06:47:56.875Z,90.84
2023-01-12T06:48:56.906Z,90.66
2023-01-12T06:49:56.933Z,91.23
2023-01-12T06:50:56.982Z,90.94
2023-01-12T06:51:56.990Z,90.94
2023-01-12T06:52:57.318Z,90.94
2023-01-12T06:53:57.048Z,90.94
2023-01-12T06:54:57.101Z,91.13
2023-01-12T06:55:57.119Z,90.66
2023-01-12T06:56:57.193Z,90.66
2023-01-12T06:57:57.264Z,90.94
2023-01-12T06:58:57.203Z,90.94
2023-01-12T06:59:57.477Z,90.94
2023-01-12T07:00:57.265Z,90.46
2023-01-12T07:01:57.380Z,90.66
2023-01-12T07:02:57.303Z,90.27
2023-01-12T07:03:57.331Z,91.13
2023-01-12T07:04:57.393Z,90.46
2023-01-12T07:05:57.392Z,90.42
2023-01-12T07:06:57.768Z,90.61
2023-01-12T07:07:57.456Z,90.27
2023-01-12T07:09:57.659Z,90.56
2023-01-12T07:10:57.751Z,90.22
2023-01-12T07:11:57.584Z,90.66
2023-01-12T07:12:57.740Z,90.66
2023-01-12T07:13:57.926Z,90.66
2023-01-12T07:14:57.656Z,90.03
2023-01-12T07:15:57.708Z,90.13
2023-01-12T07:16:57.702Z,90.46
2023-01-12T07:17:57.747Z,90.75
2023-01-12T07:18:57.765Z,90.66
2023-01-12T07:20:58.128Z,90.52
2023-01-12T07:21:57.851Z,90.66
2023-01-12T07:22:57.874Z,90.37
2023-01-12T07:23:57.911Z,90.61
2023-01-12T07:24:58.067Z,90.27
2023-01-12T07:25:57.987Z,90.22
2023-01-12T07:26:58.326Z,90.52
2023-01-12T07:27:58.018Z,90.27
2023-01-12T07:28:58.059Z,89.46
2023-01-12T07:29:58.077Z,90.13
2023-01-12T07:30:58.140Z,90.17
2023-01-12T07:31:58.133Z,90.13
2023-01-12T07:32:58.465Z,89.94
2023-01-12T07:33:58.195Z,89.98
2023-01-12T07:34:58.248Z,90.42
2023-01-12T07:35:58.257Z,89.75
2023-01-12T07:36:58.331Z,90.03
2023-01-12T07:37:58.307Z,90.13
2023-01-12T07:38:58.582Z,90.32
2023-01-12T07:39:59.215Z,90.32
2023-01-12T07:40:58.389Z,90.03
2023-01-12T07:41:58.424Z,89.65
2023-01-12T07:42:58.478Z,89.94
2023-01-12T07:43:58.474Z,89.55
2023-01-12T07:44:58.615Z,89.94
2023-01-12T07:45:58.786Z,89.75
2023-01-12T07:46:58.586Z,89.65
2023-01-12T07:47:58.605Z,89.84
2023-01-12T07:48:58.648Z,89.65
2023-01-12T07:49:58.647Z,90.03
2023-01-12T07:50:58.691Z,89.46
2023-01-12T07:51:58.700Z,90.03
2023-01-12T07:52:58.732Z,89.65
2023-01-12T07:53:58.761Z,89.55
2023-01-12T07:54:58.902Z,89.07
2023-01-12T07:55:58.818Z,89.36
2023-01-12T07:56:58.945Z,89.84
2023-01-12T07:57:58.892Z,89.75
2023-01-12T07:58:59.177Z,89.46
2023-01-12T07:59:58.934Z,89.94
2023-01-12T08:00:58.994Z,89.84
2023-01-12T08:01:59.066Z,89.36
2023-01-12T08:02:59.019Z,89.94
2023-01-12T08:03:59.051Z,89.46
2023-01-12T08:04:59.219Z,88.98
2023-01-12T08:05:59.502Z,89.26
2023-01-12T08:06:59.130Z,89.75
2023-01-12T08:07:59.198Z,89.46
2023-01-12T08:08:59.189Z,89.46
2023-01-12T08:09:59.237Z,89.17
2023-01-12T08:10:59.241Z,89.26
2023-01-12T08:11:59.275Z,89.26
2023-01-12T08:12:59.674Z,89.55
2023-01-12T08:13:59.331Z,90.03
2023-01-12T08:14:59.478Z,89.07
2023-01-12T08:15:59.410Z,89.36
2023-01-12T08:16:59.559Z,89.75
2023-01-12T08:17:59.445Z,89.46
2023-01-12T08:18:59.539Z,89.36
2023-01-12T08:19:59.763Z,89.17
2023-01-12T08:20:59.531Z,89.17
2023-01-12T08:21:59.570Z,89.65
2023-01-12T08:22:59.580Z,89.36
2023-01-12T08:23:59.609Z,89.17
2023-01-12T08:24:59.639Z,89.17
2023-01-12T08:25:59.666Z,89.46
2023-01-12T08:27:00.095Z,88.88
2023-01-12T08:27:59.738Z,88.49
2023-01-12T08:28:59.747Z,88.69
2023-01-12T08:29:59.795Z,88.88
2023-01-12T08:30:59.892Z,88.31
2023-01-12T08:32:01.109Z,88.49
2023-01-12T08:32:59.865Z,88.49
2023-01-12T08:35:01.527Z,89.26
2023-01-12T08:35:59.946Z,88.98
2023-01-12T08:36:59.988Z,88.79
2023-01-12T08:38:00.009Z,88.79
2023-01-12T08:39:00.038Z,88.59
2023-01-12T08:41:00.399Z,88.88
2023-01-12T08:42:00.117Z,88.98
2023-01-12T08:43:00.148Z,88.79
2023-01-12T08:44:00.177Z,88.98
2023-01-12T08:45:00.229Z,88.69
2023-01-12T08:46:00.237Z,88.69
2023-01-12T08:47:00.859Z,88.40
2023-01-12T08:48:00.291Z,88.79
2023-01-12T08:49:00.317Z,88.11
2023-01-12T08:50:00.513Z,88.49
2023-01-12T08:51:00.465Z,88.40
2023-01-12T08:52:00.409Z,88.59
2023-01-12T08:53:00.799Z,88.88
2023-01-12T08:54:00.474Z,88.59
2023-01-12T08:55:00.484Z,88.31
2023-01-12T08:56:00.515Z,88.40
2023-01-12T08:57:00.537Z,88.79
2023-01-12T08:58:00.571Z,88.69
2023-01-12T08:59:00.841Z,88.40
2023-01-12T09:00:00.624Z,88.79
2023-01-12T09:01:00.912Z,88.40
2023-01-12T09:02:00.953Z,88.31
2023-01-12T09:03:00.873Z,89.17
2023-01-12T09:04:00.809Z,88.69
2023-01-12T09:06:00.867Z,89.26
2023-01-12T09:07:00.876Z,88.79
2023-01-12T09:09:00.892Z,88.49
2023-01-12T09:11:01.238Z,88.40
2023-01-12T09:12:00.974Z,88.21
2023-01-12T09:13:00.987Z,88.17
2023-01-12T09:14:01.023Z,88.21
2023-01-12T09:15:01.048Z,87.78
2023-01-12T09:16:11.832Z,88.49
2023-01-12T09:17:01.199Z,88.74
2023-01-12T09:18:01.385Z,88.69
2023-01-12T09:19:01.241Z,88.69
2023-01-12T09:20:01.181Z,88.59
2023-01-12T09:21:01.250Z,88.69
2023-01-12T09:22:01.235Z,88.31
2023-01-12T09:23:01.390Z,88.07
2023-01-12T09:24:01.349Z,88.40
2023-01-12T09:25:01.633Z,88.45
2023-01-12T09:27:01.527Z,87.82
2023-01-12T09:28:01.413Z,88.45
2023-01-12T09:29:01.440Z,88.26
2023-01-12T09:30:01.573Z,88.35
2023-01-12T09:32:01.941Z,88.65
2023-01-12T09:33:01.577Z,87.98
2023-01-12T09:34:01.594Z,88.26
2023-01-12T09:35:01.639Z,88.65
2023-01-12T09:36:01.881Z,88.93
2023-01-12T09:37:01.795Z,88.65
2023-01-12T09:39:02.047Z,87.59
2023-01-12T09:40:01.837Z,88.55
2023-01-12T09:41:02.471Z,88.74
2023-01-12T09:43:01.883Z,88.17
2023-01-12T09:44:02.037Z,87.78
2023-01-12T09:45:01.964Z,88.35
2023-01-12T09:46:02.040Z,88.07
2023-01-12T09:47:01.947Z,88.26
2023-01-12T09:48:02.103Z,87.98
2023-01-12T09:49:02.010Z,88.26
2023-01-12T09:50:09.199Z,88.45
2023-01-12T09:51:02.368Z,87.98
2023-01-12T09:52:02.158Z,88.45
2023-01-12T09:53:02.115Z,88.55
2023-01-12T09:55:02.163Z,88.45
2023-01-12T09:56:02.197Z,88.17
2023-01-12T09:57:02.473Z,88.26
2023-01-12T09:58:02.241Z,88.35
2023-01-12T09:59:02.273Z,88.74
2023-01-12T10:00:02.360Z,88.45
2023-01-12T10:01:02.389Z,88.35
2023-01-12T10:03:02.929Z,87.78
2023-01-12T10:04:02.412Z,87.78
2023-01-12T10:05:02.445Z,88.45
2023-01-12T10:06:02.473Z,88.45
2023-01-12T10:07:02.531Z,88.07
2023-01-12T10:08:02.549Z,88.35
2023-01-12T10:09:02.561Z,88.45
2023-01-12T10:10:02.880Z,88.45
2023-01-12T10:11:02.603Z,87.98
2023-01-12T10:13:02.675Z,88.45
2023-01-12T10:14:02.696Z,88.45
2023-01-12T10:15:02.722Z,88.35
2023-01-12T10:16:02.839Z,88.55
2023-01-12T10:17:03.114Z,88.45
2023-01-12T10:18:02.839Z,87.88
2023-01-12T10:19:02.839Z,88.17
2023-01-12T10:20:02.855Z,88.55
2023-01-12T10:21:02.883Z,88.55
2023-01-12T10:22:02.912Z,88.55
2023-01-12T10:23:03.067Z,88.93
2023-01-12T10:24:03.215Z,88.45
2023-01-12T10:25:03.010Z,88.45
2023-01-12T10:26:03.026Z,88.17
2023-01-12T10:27:03.060Z,87.40
2023-01-12T10:28:03.088Z,87.68
2023-01-12T10:29:03.113Z,87.88
2023-01-12T10:30:03.143Z,87.59
2023-01-12T10:31:03.563Z,87.98
2023-01-12T10:32:03.220Z,88.55
2023-01-12T10:33:03.225Z,89.12
2023-01-12T10:34:03.251Z,88.35
2023-01-12T10:35:03.276Z,88.45
2023-01-12T10:36:03.301Z,88.07
2023-01-12T10:37:03.331Z,88.17
2023-01-12T10:38:03.671Z,87.98
2023-01-12T10:39:03.412Z,88.35
2023-01-12T10:40:03.432Z,88.55
2023-01-12T10:41:03.467Z,87.49
2023-01-12T10:43:06.675Z,87.88
2023-01-12T10:44:03.528Z,87.40
2023-01-12T10:45:03.573Z,87.88
2023-01-12T10:46:03.661Z,87.78
2023-01-12T10:47:03.619Z,87.98
2023-01-12T10:48:03.647Z,87.78
2023-01-12T10:49:03.667Z,87.98
2023-01-12T10:50:03.690Z,88.65
2023-01-12T10:51:04.195Z,88.84
2023-01-12T10:52:03.824Z,88.55
2023-01-12T10:53:03.888Z,87.40
2023-01-12T10:54:03.805Z,87.68
2023-01-12T10:55:03.907Z,87.88
2023-01-12T10:56:03.889Z,86.72
2023-01-12T10:57:04.198Z,87.49
2023-01-12T10:58:04.012Z,88.07
2023-01-12T10:59:03.949Z,88.26
2023-01-12T11:00:04.078Z,88.07
2023-01-12T11:01:04.139Z,88.45
2023-01-12T11:02:04.159Z,87.49
2023-01-12T11:03:04.087Z,87.49
2023-01-12T11:04:04.133Z,88.07
2023-01-12T11:05:04.127Z,88.45
2023-01-12T11:07:05.438Z,88.88
2023-01-12T11:08:04.210Z,88.26
2023-01-12T11:09:04.323Z,88.59
2023-01-12T11:10:04.255Z,88.31
2023-01-12T11:11:04.302Z,88.21
2023-01-12T11:12:04.324Z,88.07
2023-01-12T11:13:04.351Z,87.73
2023-01-12T11:14:04.365Z,88.74
2023-01-12T11:15:04.641Z,88.40
2023-01-12T11:16:04.415Z,88.59
2023-01-12T11:17:04.444Z,88.45
2023-01-12T11:18:04.476Z,88.69
2023-01-12T11:19:04.504Z,87.92
2023-01-12T11:20:04.536Z,88.02
2023-01-12T11:21:04.598Z,87.73
2023-01-12T11:22:04.840Z,87.88
2023-01-12T11:23:04.626Z,88.02
2023-01-12T11:24:04.796Z,87.30
2023-01-12T11:25:04.698Z,87.88
2023-01-12T11:26:04.710Z,87.35
2023-01-12T11:27:04.799Z,87.59
2023-01-12T11:28:04.758Z,87.44
2023-01-12T11:29:04.792Z,88.59
2023-01-12T11:30:04.826Z,87.49
2023-01-12T11:31:04.872Z,87.92
2023-01-12T11:32:04.875Z,87.73
2023-01-12T11:33:04.904Z,87.82
2023-01-12T11:34:04.934Z,87.78
2023-01-12T11:35:05.247Z,87.88
2023-01-12T11:37:05.018Z,87.78
2023-01-12T11:38:05.037Z,88.11
2023-01-12T11:39:05.175Z,87.73
2023-01-12T11:40:05.097Z,87.68
2023-01-12T11:41:05.364Z,87.98
2023-01-12T11:42:05.152Z,87.54
2023-01-12T11:43:05.220Z,87.92
2023-01-12T11:44:05.220Z,87.73
2023-01-12T11:45:05.290Z,87.15
2023-01-12T11:46:05.303Z,87.35
2023-01-12T11:47:05.596Z,87.49
2023-01-12T11:48:05.311Z,87.73
2023-01-12T11:49:05.336Z,87.59
2023-01-12T11:50:05.395Z,87.59
2023-01-12T11:51:05.425Z,87.40
2023-01-12T11:52:05.482Z,88.79
2023-01-12T11:53:05.450Z,88.45
2023-01-12T11:54:05.481Z,88.11
2023-01-12T11:55:05.507Z,88.69
2023-01-12T11:56:05.537Z,88.49
2023-01-12T11:57:05.562Z,88.07
2023-01-12T11:58:05.589Z,87.78
2023-01-12T11:59:05.646Z,87.73
2023-01-12T12:00:05.656Z,87.49
2023-01-12T12:01:05.707Z,87.82
2023-01-12T12:02:05.772Z,87.25
2023-01-12T12:03:05.735Z,87.35
2023-01-12T12:04:05.805Z,87.49
2023-01-12T12:05:06.094Z,88.21
2023-01-12T12:06:05.828Z,87.73
2023-01-12T12:07:05.856Z,87.98
2023-01-12T12:08:05.884Z,87.63
2023-01-12T12:09:05.896Z,87.44
2023-01-12T12:10:05.931Z,87.49
2023-01-12T12:11:05.956Z,87.73
2023-01-12T12:12:05.977Z,87.82
2023-01-12T12:13:06.011Z,87.25
2023-01-12T12:14:06.039Z,87.21
2023-01-12T12:15:06.089Z,87.73
2023-01-12T12:16:06.262Z,87.73
2023-01-12T12:17:06.118Z,87.92
2023-01-12T12:18:06.397Z,87.82
2023-01-12T12:19:06.187Z,87.98
2023-01-12T12:20:06.198Z,87.05
2023-01-12T12:21:06.227Z,86.77
2023-01-12T12:22:06.255Z,86.96
2023-01-12T12:23:06.389Z,87.54
2023-01-12T12:24:06.311Z,87.92
2023-01-12T12:25:06.347Z,87.35
2023-01-12T12:26:06.382Z,87.05
2023-01-12T12:27:06.400Z,87.15
2023-01-12T12:28:06.431Z,87.25
2023-01-12T12:29:06.450Z,86.87
2023-01-12T12:30:06.730Z,87.05
2023-01-12T12:31:06.712Z,87.35
2023-01-12T12:32:06.535Z,87.35
2023-01-12T12:33:06.564Z,87.35
2023-01-12T12:34:06.695Z,88.02
2023-01-12T12:35:06.620Z,87.05
2023-01-12T12:36:06.906Z,87.54
2023-01-12T12:37:06.675Z,87.73
2023-01-12T12:38:06.709Z,87.88
2023-01-12T12:39:06.735Z,87.44
2023-01-12T12:40:06.762Z,87.30
2023-01-12T12:41:06.820Z,87.98
2023-01-12T12:42:06.816Z,87.44
2023-01-12T12:43:06.854Z,87.35
2023-01-12T12:44:07.488Z,87.25
2023-01-12T12:46:06.971Z,87.15
2023-01-12T12:47:07.000Z,86.96
2023-01-12T12:48:06.999Z,87.92
2023-01-12T12:49:07.271Z,87.21
2023-01-12T12:50:07.039Z,88.11
2023-01-12T12:51:07.102Z,88.02
2023-01-12T12:52:07.098Z,87.49
2023-01-12T12:53:07.133Z,87.88
2023-01-12T12:54:07.162Z,88.02
2023-01-12T12:55:07.185Z,87.49
2023-01-12T12:56:07.507Z,87.54
2023-01-12T12:57:07.235Z,87.25
2023-01-12T12:58:07.275Z,87.40
2023-01-12T12:59:07.305Z,87.40
2023-01-12T13:00:07.367Z,87.92
2023-01-12T13:01:07.413Z,87.30
2023-01-12T13:02:07.467Z,87.73
2023-01-12T13:03:07.863Z,87.40
2023-01-12T13:04:07.436Z,87.98
2023-01-12T13:05:07.493Z,87.25
2023-01-12T13:06:07.497Z,87.49
2023-01-12T13:07:07.535Z,87.92
2023-01-12T13:08:07.652Z,87.35
2023-01-12T13:09:07.575Z,87.59
2023-01-12T13:10:07.855Z,87.40
2023-01-12T13:11:07.643Z,87.73
2023-01-12T13:12:07.667Z,87.35
2023-01-12T13:13:07.688Z,87.11
2023-01-12T13:14:07.722Z,87.73
2023-01-12T13:15:07.747Z,87.63
2023-01-12T13:16:07.893Z,87.63
2023-01-12T13:17:07.805Z,87.88
2023-01-12T13:18:07.970Z,88.02
2023-01-12T13:19:07.948Z,88.21
2023-01-12T13:20:16.816Z,87.82
2023-01-12T13:21:07.907Z,87.73
2023-01-12T13:22:07.939Z,87.73
2023-01-12T13:23:08.212Z,88.11
2023-01-12T13:24:07.989Z,87.98
2023-01-12T13:25:08.028Z,87.92
2023-01-12T13:26:08.057Z,87.44
2023-01-12T13:27:08.082Z,87.73
2023-01-12T13:28:08.120Z,88.11
2023-01-12T13:29:08.139Z,87.63
2023-01-12T13:30:08.165Z,87.49
2023-01-12T13:31:08.233Z,87.44
2023-01-12T13:32:08.212Z,87.73
2023-01-12T13:33:08.350Z,87.73
2023-01-12T13:34:08.276Z,88.17